createdAt,value
2018-01-24T00:01:02.363Z,7.18
2018-01-24T00:03:30.801Z,7.23
2018-01-24T00:05:59.184Z,7.15
2018-01-24T00:08:27.632Z,7.23
2018-01-24T00:10:56.016Z,7.28
2018-01-24T00:13:24.461Z,7.26
2018-01-24T00:15:53.659Z,7.31
2018-01-24T00:18:22.036Z,7.26
2018-01-24T00:20:51.486Z,7.26
2018-01-24T00:23:19.906Z,7.36
2018-01-24T00:25:48.268Z,7.39
2018-01-24T00:28:16.739Z,7.44
2018-01-24T00:30:45.196Z,7.46
2018-01-24T00:33:13.647Z,7.47
2018-01-24T00:35:42.780Z,7.52
2018-01-24T00:38:11.204Z,7.61
2018-01-24T00:40:39.685Z,7.67
2018-01-24T00:43:08.291Z,7.71
2018-01-24T00:45:37.428Z,7.80
2018-01-24T00:48:05.783Z,7.91
2018-01-24T00:53:09.696Z,7.96
2018-01-24T00:55:38.930Z,8.00
2018-01-24T00:58:07.363Z,7.97
2018-01-24T01:00:35.796Z,8.02
2018-01-24T01:03:04.259Z,8.04
2018-01-24T01:05:32.626Z,8.03
2018-01-24T01:08:01.738Z,8.05
2018-01-24T01:10:30.116Z,8.10
2018-01-24T01:12:58.469Z,8.09
2018-01-24T01:15:27.584Z,8.06
2018-01-24T01:17:56.236Z,8.11
2018-01-24T01:20:25.365Z,8.17
2018-01-24T01:22:54.489Z,8.21
2018-01-24T01:25:22.947Z,8.17
2018-01-24T01:27:51.307Z,8.13
2018-01-24T01:30:20.508Z,8.13
2018-01-24T01:32:48.944Z,8.16
2018-01-24T01:35:17.387Z,8.18
2018-01-24T01:37:45.752Z,8.20
2018-01-24T01:40:14.879Z,8.19
2018-01-24T01:42:43.242Z,8.22
2018-01-24T01:45:11.596Z,8.15
2018-01-24T01:47:40.773Z,8.03
2018-01-24T01:50:09.132Z,7.94
2018-01-24T01:52:37.506Z,7.93
2018-01-24T01:55:05.931Z,7.95
2018-01-24T01:57:35.132Z,8.02
2018-01-24T02:00:04.292Z,8.03
2018-01-24T02:02:32.686Z,7.98
2018-01-24T02:05:01.103Z,7.96
2018-01-24T02:07:29.624Z,8.00
2018-01-24T02:09:58.045Z,8.06
2018-01-24T02:12:26.489Z,8.12
2018-01-24T02:14:55.103Z,8.14
2018-01-24T02:17:24.234Z,8.07
2018-01-24T02:19:52.644Z,8.03
2018-01-24T02:22:21.041Z,8.03
2018-01-24T02:24:49.463Z,8.02
2018-01-24T02:27:17.897Z,8.05
2018-01-24T02:29:46.274Z,8.12
2018-01-24T02:32:14.644Z,8.12
2018-01-24T02:34:43.855Z,8.14
2018-01-24T02:37:12.391Z,8.14
2018-01-24T02:39:40.760Z,8.16
2018-01-24T02:42:09.220Z,8.21
2018-01-24T02:44:37.564Z,8.12
2018-01-24T02:47:05.975Z,8.18
2018-01-24T02:49:35.133Z,8.15
2018-01-24T02:52:04.319Z,8.11
2018-01-24T02:54:32.741Z,8.01
2018-01-24T02:57:01.154Z,7.96
2018-01-24T02:59:29.579Z,7.97
2018-01-24T03:01:58.023Z,7.93
2018-01-24T03:04:26.447Z,7.95
2018-01-24T03:06:54.896Z,7.98
2018-01-24T03:09:23.261Z,8.03
2018-01-24T03:11:51.608Z,8.09
2018-01-24T03:14:20.749Z,8.07
2018-01-24T03:16:49.124Z,8.05
2018-01-24T03:19:17.476Z,8.04
2018-01-24T03:21:45.894Z,8.12
2018-01-24T03:24:14.273Z,8.17
2018-01-24T03:26:42.624Z,8.28
2018-01-24T03:29:10.967Z,8.35
2018-01-24T03:31:39.344Z,8.40
2018-01-24T03:34:07.698Z,8.43
2018-01-24T03:36:36.117Z,8.44
2018-01-24T03:39:05.312Z,8.44
2018-01-24T03:41:34.504Z,8.43
2018-01-24T03:44:03.726Z,8.46
2018-01-24T03:46:32.195Z,8.52
2018-01-24T03:49:01.441Z,8.58
2018-01-24T03:51:29.780Z,8.61
2018-01-24T03:53:58.983Z,8.64
2018-01-24T03:56:27.341Z,8.66
2018-01-24T03:58:56.486Z,8.64
2018-01-24T04:01:24.939Z,8.70
2018-01-24T04:03:53.300Z,8.77
2018-01-24T04:06:22.481Z,8.83
2018-01-24T04:08:50.888Z,8.85
2018-01-24T04:11:20.072Z,8.84
2018-01-24T04:13:49.278Z,8.91
2018-01-24T04:16:18.463Z,8.93
2018-01-24T04:18:47.651Z,8.93
2018-01-24T04:21:16.052Z,8.90
2018-01-24T04:23:44.487Z,8.88
2018-01-24T04:26:12.916Z,8.91
2018-01-24T04:28:41.346Z,8.91
2018-01-24T04:31:09.787Z,8.89
2018-01-24T04:33:38.240Z,8.84
2018-01-24T04:36:07.436Z,8.84
2018-01-24T04:38:36.596Z,8.79
2018-01-24T04:41:04.984Z,8.81
2018-01-24T04:43:33.338Z,8.80
2018-01-24T04:46:01.751Z,8.69
2018-01-24T04:48:30.128Z,8.63
2018-01-24T04:50:58.474Z,8.60
2018-01-24T04:53:26.836Z,8.57
2018-01-24T04:55:55.196Z,8.61
2018-01-24T04:58:24.332Z,8.55
2018-01-24T05:00:52.747Z,8.56
2018-01-24T05:03:21.171Z,8.51
2018-01-24T05:05:49.571Z,8.44
2018-01-24T05:08:18.007Z,8.46
2018-01-24T05:10:47.199Z,8.40
2018-01-24T05:13:16.361Z,8.44
2018-01-24T05:15:44.712Z,8.43
2018-01-24T05:18:13.065Z,8.44
2018-01-24T05:20:43.307Z,8.47
2018-01-24T05:23:11.734Z,8.47
2018-01-24T05:25:40.112Z,8.38
2018-01-24T05:28:08.574Z,8.32
2018-01-24T05:30:37.003Z,8.29
2018-01-24T05:33:06.215Z,8.29
2018-01-24T05:35:34.579Z,8.21
2018-01-24T05:38:03.758Z,8.21
2018-01-24T05:40:32.178Z,8.14
2018-01-24T05:43:00.623Z,8.06
2018-01-24T05:45:29.752Z,8.30
2018-01-24T05:47:58.195Z,8.57
2018-01-24T05:50:26.576Z,8.66
2018-01-24T05:52:54.940Z,8.80
2018-01-24T05:55:23.457Z,8.88
2018-01-24T05:57:52.635Z,8.85
2018-01-24T06:00:21.827Z,8.85
2018-01-24T06:02:50.204Z,8.85
2018-01-24T06:05:18.795Z,8.90
2018-01-24T06:07:47.227Z,8.88
2018-01-24T06:10:15.663Z,8.90
2018-01-24T06:12:44.869Z,8.96
2018-01-24T06:15:13.996Z,8.97
2018-01-24T06:17:42.426Z,9.03
2018-01-24T06:20:10.887Z,9.07
2018-01-24T06:22:39.260Z,9.11
2018-01-24T06:25:07.604Z,9.14
2018-01-24T06:27:35.968Z,9.20
2018-01-24T06:30:05.143Z,9.27
2018-01-24T06:32:33.670Z,9.26
2018-01-24T06:35:02.020Z,9.28
2018-01-24T06:37:31.203Z,9.29
2018-01-24T06:39:59.643Z,9.28
2018-01-24T06:42:28.017Z,9.30
2018-01-24T06:44:56.455Z,9.30
2018-01-24T06:47:25.591Z,9.30
2018-01-24T06:49:54.011Z,9.28
2018-01-24T06:52:22.385Z,9.29
2018-01-24T06:54:50.827Z,9.27
2018-01-24T06:57:20.199Z,9.28
2018-01-24T06:59:49.329Z,9.31
2018-01-24T07:02:17.736Z,9.41
2018-01-24T07:04:46.130Z,9.68
2018-01-24T07:07:14.517Z,9.63
2018-01-24T07:09:43.648Z,9.64
2018-01-24T07:12:29.668Z,9.80
2018-01-24T07:14:58.012Z,9.83
2018-01-24T07:17:26.364Z,9.87
2018-01-24T07:19:54.783Z,9.83
2018-01-24T07:22:23.208Z,9.86
2018-01-24T07:24:51.573Z,9.83
2018-01-24T07:27:19.921Z,9.91
2018-01-24T07:29:48.284Z,9.85
2018-01-24T07:32:16.707Z,9.88
2018-01-24T07:34:45.085Z,9.79
2018-01-24T07:37:13.471Z,9.63
2018-01-24T07:39:41.897Z,9.60
2018-01-24T07:42:10.316Z,9.57
2018-01-24T07:44:38.703Z,9.47
2018-01-24T07:47:07.138Z,9.50
2018-01-24T07:49:35.560Z,9.49
2018-01-24T07:52:04.178Z,9.55
2018-01-24T07:54:33.371Z,9.59
2018-01-24T07:57:01.805Z,9.50
2018-01-24T07:59:30.281Z,9.43
2018-01-24T08:01:58.647Z,9.33
2018-01-24T08:04:26.996Z,9.23
2018-01-24T08:06:55.352Z,9.19
2018-01-24T08:09:23.729Z,9.13
2018-01-24T08:11:52.155Z,9.01
2018-01-24T08:14:20.601Z,9.04
2018-01-24T08:16:49.776Z,9.09
2018-01-24T08:19:18.191Z,9.11
2018-01-24T08:21:47.378Z,9.07
2018-01-24T08:24:16.553Z,9.07
2018-01-24T08:26:44.901Z,9.03
2018-01-24T08:29:13.244Z,9.10
2018-01-24T08:31:42.635Z,9.15
2018-01-24T08:34:11.062Z,9.24
2018-01-24T08:36:39.483Z,9.26
2018-01-24T08:39:07.927Z,9.36
2018-01-24T08:41:36.282Z,9.46
2018-01-24T08:44:05.416Z,9.49
2018-01-24T08:46:33.765Z,9.56
2018-01-24T08:49:02.231Z,9.62
2018-01-24T08:51:31.796Z,9.64
2018-01-24T08:54:00.227Z,9.69
2018-01-24T08:56:28.584Z,9.93
2018-01-24T08:58:57.021Z,9.70
2018-01-24T09:01:25.455Z,10.05
2018-01-24T09:03:54.590Z,10.23
2018-01-24T09:06:23.033Z,10.36
2018-01-24T09:08:52.164Z,10.50
2018-01-24T09:11:20.527Z,10.69
2018-01-24T09:13:48.876Z,10.83
2018-01-24T09:16:18.067Z,10.97
2018-01-24T09:18:47.252Z,11.44
2018-01-24T09:21:15.696Z,12.27
2018-01-24T09:23:44.056Z,12.97
2018-01-24T09:26:12.408Z,13.12
2018-01-24T09:28:40.800Z,12.76
2018-01-24T09:31:09.983Z,12.06
2018-01-24T09:33:39.116Z,11.77
2018-01-24T09:36:07.496Z,11.75
2018-01-24T09:38:35.874Z,12.10
2018-01-24T09:41:04.241Z,12.06
2018-01-24T09:43:33.392Z,12.04
2018-01-24T09:46:01.840Z,12.08
2018-01-24T09:48:30.221Z,11.82
2018-01-24T09:50:58.687Z,12.03
2018-01-24T09:53:27.134Z,12.15
2018-01-24T09:55:56.274Z,11.98
2018-01-24T09:58:24.847Z,12.18
2018-01-24T10:00:53.216Z,12.14
2018-01-24T10:03:21.660Z,12.23
2018-01-24T10:05:50.107Z,12.14
2018-01-24T10:08:18.534Z,12.12
2018-01-24T10:10:47.759Z,12.08
2018-01-24T10:13:16.171Z,12.06
2018-01-24T10:15:44.583Z,12.10
2018-01-24T10:18:13.799Z,11.95
2018-01-24T10:20:42.934Z,11.96
2018-01-24T10:23:11.326Z,12.03
2018-01-24T10:25:39.681Z,12.13
2018-01-24T10:28:08.034Z,12.00
2018-01-24T10:30:37.194Z,12.02
2018-01-24T10:33:05.545Z,11.99
2018-01-24T10:35:33.962Z,12.20
2018-01-24T10:38:02.337Z,12.20
2018-01-24T10:40:30.709Z,12.05
2018-01-24T10:42:59.135Z,12.13
2018-01-24T10:45:27.546Z,12.34
2018-01-24T10:47:55.964Z,12.50
2018-01-24T10:50:24.328Z,12.50
2018-01-24T10:52:52.713Z,12.60
2018-01-24T10:55:21.100Z,12.72
2018-01-24T10:57:49.481Z,12.65
2018-01-24T11:00:17.903Z,12.94
2018-01-24T11:02:46.361Z,12.88
2018-01-24T11:05:14.795Z,12.88
2018-01-24T11:07:43.223Z,12.98
2018-01-24T11:10:11.598Z,12.80
2018-01-24T11:12:40.787Z,12.80
2018-01-24T11:15:09.953Z,12.85
2018-01-24T11:17:38.385Z,12.91
2018-01-24T11:20:06.819Z,13.14
2018-01-24T11:22:35.283Z,13.08
2018-01-24T11:25:03.651Z,13.09
2018-01-24T11:27:32.020Z,13.00
2018-01-24T11:30:00.413Z,12.86
2018-01-24T11:32:28.835Z,13.04
2018-01-24T11:34:58.051Z,12.88
2018-01-24T11:37:26.520Z,12.80
2018-01-24T11:39:55.737Z,13.10
2018-01-24T11:42:24.099Z,13.02
2018-01-24T11:44:52.472Z,12.97
2018-01-24T11:47:21.668Z,12.85
2018-01-24T11:49:50.903Z,12.93
2018-01-24T11:52:19.335Z,12.76
2018-01-24T11:54:47.704Z,13.04
2018-01-24T11:57:16.078Z,12.85
2018-01-24T11:59:45.263Z,13.06
2018-01-24T12:02:13.630Z,13.13
2018-01-24T12:04:42.025Z,13.31
2018-01-24T12:07:10.397Z,13.27
2018-01-24T12:09:38.756Z,12.93
2018-01-24T12:12:07.153Z,13.03
2018-01-24T12:14:35.576Z,13.04
2018-01-24T12:17:04.780Z,12.85
2018-01-24T12:19:33.956Z,13.01
2018-01-24T12:22:02.413Z,13.00
2018-01-24T12:24:30.860Z,13.04
2018-01-24T12:26:59.291Z,12.82
2018-01-24T12:29:28.709Z,12.76
2018-01-24T12:31:57.081Z,12.83
2018-01-24T12:34:25.510Z,12.92
2018-01-24T12:36:53.971Z,12.98
2018-01-24T12:39:22.340Z,12.97
2018-01-24T12:41:51.551Z,13.01
2018-01-24T12:44:19.925Z,13.09
2018-01-24T12:46:49.042Z,13.07
2018-01-24T12:49:17.419Z,13.00
2018-01-24T12:51:45.869Z,13.05
2018-01-24T12:54:15.101Z,13.11
2018-01-24T12:56:43.536Z,13.06
2018-01-24T12:59:11.909Z,12.87
2018-01-24T13:01:40.275Z,12.98
2018-01-24T13:04:08.641Z,13.10
2018-01-24T13:06:37.089Z,13.06
2018-01-24T13:09:05.535Z,13.09
2018-01-24T13:11:33.968Z,13.22
2018-01-24T13:14:02.351Z,13.17
2018-01-24T13:16:30.732Z,13.06
2018-01-24T13:18:59.168Z,13.03
2018-01-24T13:21:27.615Z,13.12
2018-01-24T13:23:56.191Z,13.01
2018-01-24T13:26:24.548Z,12.97
2018-01-24T13:28:52.925Z,13.14
2018-01-24T13:31:21.310Z,13.07
2018-01-24T13:33:49.680Z,13.07
2018-01-24T13:36:18.115Z,13.08
2018-01-24T13:38:47.414Z,13.01
2018-01-24T13:41:15.837Z,12.83
2018-01-24T13:43:44.267Z,13.01
2018-01-24T13:46:12.708Z,12.83
2018-01-24T13:48:41.166Z,12.67
2018-01-24T13:51:09.544Z,12.55
2018-01-24T13:53:37.920Z,12.32
2018-01-24T13:56:07.060Z,12.39
2018-01-24T13:58:35.421Z,12.22
2018-01-24T14:01:03.776Z,12.22
2018-01-24T14:03:32.907Z,12.16
2018-01-24T14:06:01.327Z,12.11
2018-01-24T14:08:30.531Z,12.06
2018-01-24T14:10:59.956Z,12.00
2018-01-24T14:13:28.305Z,11.93
2018-01-24T14:15:56.672Z,11.93
2018-01-24T14:18:25.058Z,11.92
2018-01-24T14:20:53.473Z,12.00
2018-01-24T14:23:21.903Z,11.87
2018-01-24T14:25:50.407Z,11.82
2018-01-24T14:28:19.543Z,11.75
2018-01-24T14:30:47.971Z,11.72
2018-01-24T14:33:16.339Z,11.76
2018-01-24T14:35:44.808Z,11.72
2018-01-24T14:38:13.244Z,11.66
2018-01-24T14:40:41.679Z,11.59
2018-01-24T14:43:10.018Z,11.52
2018-01-24T14:45:38.392Z,11.47
2018-01-24T14:48:06.845Z,11.42
2018-01-24T14:50:36.028Z,11.44
2018-01-24T14:53:04.485Z,11.40
2018-01-24T14:55:32.948Z,11.34
2018-01-24T14:58:01.336Z,11.26
2018-01-24T15:00:29.769Z,11.29
2018-01-24T15:02:58.987Z,11.27
2018-01-24T15:05:27.357Z,11.17
2018-01-24T15:07:55.718Z,11.05
2018-01-24T15:10:24.922Z,11.09
2018-01-24T15:12:53.342Z,11.02
2018-01-24T15:15:21.838Z,10.97
2018-01-24T15:17:50.271Z,10.93
2018-01-24T15:20:18.703Z,10.89
2018-01-24T15:22:47.163Z,10.88
2018-01-24T15:25:15.540Z,10.85
2018-01-24T15:27:43.894Z,10.79
2018-01-24T15:30:12.340Z,10.86
2018-01-24T15:32:40.800Z,10.89
2018-01-24T15:35:09.193Z,10.79
2018-01-24T15:37:37.560Z,10.63
2018-01-24T15:40:05.952Z,10.52
2018-01-24T15:42:34.309Z,10.37
2018-01-24T15:45:02.732Z,10.28
2018-01-24T15:47:31.309Z,10.22
2018-01-24T15:49:59.772Z,10.13
2018-01-24T15:52:28.149Z,10.15
2018-01-24T15:54:56.591Z,10.13
2018-01-24T15:57:25.044Z,10.03
2018-01-24T15:59:53.511Z,9.94
2018-01-24T16:02:22.731Z,9.78
2018-01-24T16:04:51.116Z,9.66
2018-01-24T16:07:19.570Z,9.63
2018-01-24T16:09:48.819Z,9.62
2018-01-24T16:12:17.257Z,9.58
2018-01-24T16:14:46.467Z,9.58
2018-01-24T16:17:14.836Z,9.56
2018-01-24T16:19:44.027Z,9.58
2018-01-24T16:22:13.177Z,9.67
2018-01-24T16:24:41.602Z,9.71
2018-01-24T16:27:10.743Z,9.68
2018-01-24T16:29:39.175Z,9.62
2018-01-24T16:32:08.374Z,9.59
2018-01-24T16:34:37.655Z,9.52
2018-01-24T16:37:06.098Z,9.45
2018-01-24T16:39:34.523Z,9.41
2018-01-24T16:42:02.955Z,9.35
2018-01-24T16:44:31.312Z,9.36
2018-01-24T16:47:00.463Z,9.31
2018-01-24T16:49:28.818Z,9.32
2018-01-24T16:51:57.239Z,9.39
2018-01-24T16:54:26.381Z,9.47
2018-01-24T16:56:54.799Z,9.49
2018-01-24T16:59:23.270Z,9.47
2018-01-24T17:01:51.705Z,9.51
2018-01-24T17:04:20.076Z,9.54
2018-01-24T17:06:49.249Z,9.50
2018-01-24T17:09:17.623Z,9.49
2018-01-24T17:11:45.980Z,9.56
2018-01-24T17:14:14.427Z,9.71
2018-01-24T17:16:42.860Z,9.91
2018-01-24T17:19:11.238Z,9.99
2018-01-24T17:21:39.690Z,10.15
2018-01-24T17:24:08.159Z,10.12
2018-01-24T17:26:36.540Z,10.05
2018-01-24T17:29:05.296Z,10.13
2018-01-24T17:31:34.441Z,10.22
2018-01-24T17:34:02.832Z,10.28
2018-01-24T17:36:31.205Z,10.33
2018-01-24T17:38:59.630Z,10.31
2018-01-24T17:41:28.012Z,10.32
2018-01-24T17:43:57.158Z,10.38
2018-01-24T17:46:25.529Z,10.46
2018-01-24T17:48:54.013Z,10.55
2018-01-24T17:51:22.391Z,10.58
2018-01-24T17:53:50.753Z,10.62
2018-01-24T17:56:19.173Z,10.72
2018-01-24T17:58:47.611Z,10.78
2018-01-24T18:01:16.076Z,10.86
2018-01-24T18:03:44.671Z,10.91
2018-01-24T18:06:13.048Z,10.92
2018-01-24T18:08:41.421Z,11.05
2018-01-24T18:11:09.995Z,11.15
2018-01-24T18:13:38.376Z,11.15
2018-01-24T18:16:06.830Z,11.15
2018-01-24T18:18:36.126Z,11.16
2018-01-24T18:21:04.521Z,11.20
2018-01-24T18:23:33.755Z,11.17
2018-01-24T18:26:02.184Z,11.23
2018-01-24T18:28:30.650Z,11.26
2018-01-24T18:30:59.144Z,11.31
2018-01-24T18:33:27.632Z,11.35
2018-01-24T18:35:56.030Z,11.38
2018-01-24T18:38:25.150Z,11.47
2018-01-24T18:40:53.692Z,11.46
2018-01-24T18:43:22.150Z,11.46
2018-01-24T18:45:51.303Z,11.46
2018-01-24T18:48:19.702Z,11.49
2018-01-24T18:50:48.160Z,11.51
2018-01-24T18:53:16.635Z,11.45
2018-01-24T18:55:45.071Z,11.50
2018-01-24T18:58:14.244Z,11.57
2018-01-24T19:00:42.629Z,11.57
2018-01-24T19:03:11.180Z,11.58
2018-01-24T19:05:39.557Z,11.59
2018-01-24T19:08:07.931Z,11.56
2018-01-24T19:10:36.677Z,11.60
2018-01-24T19:13:05.141Z,11.63
2018-01-24T19:15:33.528Z,11.66
2018-01-24T19:18:01.972Z,11.65
2018-01-24T19:20:30.419Z,11.68
2018-01-24T19:22:58.862Z,11.71
2018-01-24T19:25:27.324Z,11.67
2018-01-24T19:27:55.759Z,11.68
2018-01-24T19:30:25.168Z,11.71
2018-01-24T19:32:53.607Z,11.69
2018-01-24T19:35:22.063Z,11.69
2018-01-24T19:37:50.552Z,11.67
2018-01-24T19:40:19.048Z,11.70
2018-01-24T19:42:47.487Z,11.69
2018-01-24T19:45:15.944Z,11.68
2018-01-24T19:47:44.375Z,11.71
2018-01-24T19:50:12.839Z,11.67
2018-01-24T19:52:41.250Z,11.69
2018-01-24T19:55:09.936Z,11.66
2018-01-24T19:57:38.396Z,11.63
2018-01-24T20:00:06.857Z,11.63
2018-01-24T20:02:35.370Z,11.60
2018-01-24T20:05:03.758Z,11.56
2018-01-24T20:07:32.117Z,11.60
2018-01-24T20:10:00.555Z,11.65
2018-01-24T20:12:29.805Z,11.66
2018-01-24T20:14:58.254Z,11.65
2018-01-24T20:17:26.683Z,11.72
2018-01-24T20:19:55.066Z,11.72
2018-01-24T20:22:23.542Z,11.79
2018-01-24T20:24:52.021Z,11.79
2018-01-24T20:27:21.173Z,11.82
2018-01-24T20:29:50.332Z,11.83
2018-01-24T20:32:18.754Z,11.79
2018-01-24T20:34:48.066Z,11.79
2018-01-24T20:37:17.165Z,11.80
2018-01-24T20:39:45.589Z,11.79
2018-01-24T20:42:14.061Z,11.77
2018-01-24T20:44:42.437Z,11.79
2018-01-24T20:47:10.816Z,11.80
2018-01-24T20:49:39.188Z,11.81
2018-01-24T20:52:07.596Z,11.86
2018-01-24T20:54:36.019Z,11.87
2018-01-24T20:57:04.452Z,11.87
2018-01-24T20:59:33.039Z,11.86
2018-01-24T21:02:01.404Z,11.83
2018-01-24T21:04:29.840Z,11.80
2018-01-24T21:06:58.233Z,11.83
2018-01-24T21:09:26.710Z,11.80
2018-01-24T21:11:55.121Z,11.80
2018-01-24T21:14:23.539Z,11.79
2018-01-24T21:16:52.676Z,11.77
2018-01-24T21:19:21.046Z,11.85
2018-01-24T21:21:49.467Z,11.89
2018-01-24T21:24:17.853Z,11.84
2018-01-24T21:26:46.277Z,11.89
2018-01-24T21:29:41.439Z,11.93
2018-01-24T21:32:28.357Z,11.90
2018-01-24T21:35:14.329Z,11.88
2018-01-24T21:37:42.769Z,11.86
2018-01-24T21:40:11.230Z,11.82
2018-01-24T21:42:39.678Z,11.76
2018-01-24T21:45:08.121Z,11.76
2018-01-24T21:47:36.695Z,11.78
2018-01-24T21:50:05.143Z,11.73
2018-01-24T21:52:34.370Z,11.72
2018-01-24T21:55:02.784Z,11.69
2018-01-24T21:57:31.210Z,11.69
2018-01-24T21:59:59.667Z,11.68
2018-01-24T22:02:28.902Z,11.67
2018-01-24T22:04:57.343Z,11.68
2018-01-24T22:07:25.717Z,11.65
2018-01-24T22:09:54.150Z,11.64
2018-01-24T22:12:22.531Z,11.51
2018-01-24T22:14:50.975Z,11.51
2018-01-24T22:17:20.117Z,11.47
2018-01-24T22:19:48.576Z,11.47
2018-01-24T22:22:17.051Z,11.46
2018-01-24T22:24:45.484Z,11.38
2018-01-24T22:27:13.917Z,11.35
2018-01-24T22:29:42.376Z,11.24
2018-01-24T22:32:11.620Z,11.03
2018-01-24T22:34:39.985Z,10.99
2018-01-24T22:37:08.340Z,10.95
2018-01-24T22:39:38.140Z,10.82
2018-01-24T22:42:06.583Z,10.75
2018-01-24T22:44:34.997Z,10.69
2018-01-24T22:47:03.679Z,10.66
2018-01-24T22:49:32.044Z,10.61
2018-01-24T22:52:00.413Z,10.62
2018-01-24T22:54:28.784Z,10.59
2018-01-24T22:56:57.916Z,10.60
2018-01-24T22:59:26.285Z,10.53
2018-01-24T23:01:54.702Z,10.55
2018-01-24T23:04:23.092Z,10.52
2018-01-24T23:06:51.460Z,10.50
2018-01-24T23:09:20.613Z,10.47
2018-01-24T23:11:49.035Z,10.48
2018-01-24T23:14:17.480Z,10.52
2018-01-24T23:16:45.888Z,10.43
2018-01-24T23:19:15.021Z,10.39
2018-01-24T23:21:43.455Z,10.38
2018-01-24T23:24:12.658Z,10.38
2018-01-24T23:26:41.851Z,10.45
2018-01-24T23:29:11.077Z,10.46
2018-01-24T23:31:39.511Z,10.46
2018-01-24T23:34:07.912Z,10.57
2018-01-24T23:36:37.050Z,10.57
2018-01-24T23:39:05.413Z,10.49
2018-01-24T23:41:33.852Z,10.50
2018-01-24T23:44:02.283Z,10.60
2018-01-24T23:46:30.726Z,10.66
2018-01-24T23:48:59.876Z,10.76
2018-01-24T23:51:28.233Z,10.78
2018-01-24T23:53:56.589Z,10.88
2018-01-24T23:56:25.787Z,10.90
2018-01-24T23:58:54.169Z,10.78
